Capitol Logistics 9906




CYHZ
Halifax / Stanfield International Airport
Halifax, CA
KMIA
Miami International Airport
Miami, US

Route Details

Aircraft Information
Primary: Airbus A300-600F
Backup: Not Available
Route Data
Distance: 0nm
Duration: 4h 09m
Recm'd Route: DCT ELERI DCT DRYED DCT OVAPI DCT BEXUM M204 SUMRS A699 PERMT DCT HILEY HILEY7
Origin Wx: CYHZ 191200Z 19012G17KT 15SM FEW015 FEW150 BKN250 18/12 A2986 RMK CU1AC1CI3 SLP114 DENSITY ALT 1100FT
Dest. Wx: KMIA 191253Z 12010KT 10SM FEW020 FEW090 OVC210 29/24 A3009 RMK AO2 SLP190 T02890244 $
Notes: